Pagina principale
METAR-TAF:

METAR-TAF

Aeroporti :

Pembrey, Galles

latitudine: 51-43N, longitudine: 004-22W, altezza: 3 m

Osservazione

Il bollettino è stato emesso 47 minuti fa, alle 21:50 UTC
Vento 9 kt da sud-ovest
Temperature 17°C
Umidità 100%
Pressione 1021 hPa
Visibilità: 6000 m

METAR: EGOP 222150Z AUTO 22009KT 6000 // OVC001/// 17/17 Q1021

Ora: 23:37 (22:37 UTC)


TAF: mancante

Osservazioni e previsioni meteorologiche di più di 4000 aeroporti (messaggi METAR e TAF).

Le stazioni disponibili sono rappresentate dai dischi gialli e rossi sulla carta.

Puntare il mouse per vedere il nome della stazione.

Clicca sopra per visualizzare le osservazioni e previsioni meteorologiche.

Per cambiare la mappa : fare clic sui pulsanti verdi con una croce nera per ingrandire, il pulsante verde con un trattino per diminuire, o sulla freccia verde per le mappe adiacenti.


METAR-TAF: